createdAt,value
2018-05-01T00:02:06.846Z,100195.98
2018-05-01T00:04:32.731Z,100211.52
2018-05-01T00:06:58.684Z,100211.83
2018-05-01T00:09:24.605Z,100195.94
2018-05-01T00:11:50.564Z,100179.06
2018-05-01T00:14:16.456Z,100156.95
2018-05-01T00:16:42.367Z,100151.89
2018-05-01T00:19:08.323Z,100163.83
2018-05-01T00:21:34.195Z,100176.64
2018-05-01T00:24:00.471Z,100180.06
2018-05-01T00:26:26.363Z,100189.31
2018-05-01T00:28:52.240Z,100180.49
2018-05-01T00:31:18.227Z,100182.61
2018-05-01T00:33:44.083Z,100183.84
2018-05-01T00:36:17.100Z,100191.20
2018-05-01T00:38:43.193Z,100189.70
2018-05-01T00:41:09.096Z,100193.10
2018-05-01T00:43:35.053Z,100211.48
2018-05-01T00:46:00.967Z,100215.85
2018-05-01T00:48:26.896Z,100217.96
2018-05-01T00:50:52.760Z,100203.08
2018-05-01T00:53:19.028Z,100206.14
2018-05-01T00:55:44.983Z,100203.00
2018-05-01T00:58:10.856Z,100197.44
2018-05-01T01:00:36.839Z,100192.30
2018-05-01T01:03:02.737Z,100200.80
2018-05-01T01:05:28.623Z,100193.95
2018-05-01T01:07:54.627Z,100203.14
2018-05-01T01:10:20.516Z,100201.12
2018-05-01T01:12:46.452Z,100202.01
2018-05-01T01:15:12.360Z,100204.86
2018-05-01T01:17:38.235Z,100208.27
2018-05-01T01:20:04.205Z,100209.86
2018-05-01T01:22:30.111Z,100208.83
2018-05-01T01:24:56.048Z,100217.33
2018-05-01T01:27:21.924Z,100206.72
2018-05-01T01:29:47.819Z,100209.41
2018-05-01T01:32:13.791Z,100199.55
2018-05-01T01:34:39.698Z,100197.02
2018-05-01T01:37:05.543Z,100194.77
2018-05-01T01:39:31.296Z,100199.22
2018-05-01T01:41:57.039Z,100201.25
2018-05-01T01:44:22.904Z,100200.61
2018-05-01T01:46:48.623Z,100206.83
2018-05-01T01:49:14.494Z,100211.98
2018-05-01T01:51:40.591Z,100213.37
2018-05-01T01:54:06.357Z,100212.43
2018-05-01T01:56:32.227Z,100222.91
2018-05-01T01:58:58.008Z,100225.11
2018-05-01T02:01:23.810Z,100224.11
2018-05-01T02:03:49.564Z,100217.31
2018-05-01T02:06:15.500Z,100209.13
2018-05-01T02:08:41.382Z,100208.05
2018-05-01T02:11:07.111Z,100210.91
2018-05-01T02:13:32.930Z,100215.38
2018-05-01T02:15:58.655Z,100215.52
2018-05-01T02:18:24.375Z,100212.17
2018-05-01T02:20:50.249Z,100208.52
2018-05-01T02:23:15.995Z,100205.94
2018-05-01T02:25:41.793Z,100203.50
2018-05-01T02:28:07.559Z,100200.93
2018-05-01T02:30:33.283Z,100192.50
2018-05-01T02:32:59.112Z,100195.09
2018-05-01T02:35:24.908Z,100193.31
2018-05-01T02:37:50.741Z,100199.55
2018-05-01T02:40:16.628Z,100200.84
2018-05-01T02:42:42.400Z,100204.13
2018-05-01T02:45:08.215Z,100194.41
2018-05-01T02:47:33.936Z,100196.64
2018-05-01T02:49:59.786Z,100196.89
2018-05-01T02:52:25.539Z,100205.77
2018-05-01T02:54:51.271Z,100200.44
2018-05-01T02:57:17.175Z,100189.97
2018-05-01T02:59:42.916Z,100196.03
2018-05-01T03:02:08.707Z,100200.77
2018-05-01T03:04:34.482Z,100210.64
2018-05-01T03:07:00.220Z,100206.12
2018-05-01T03:09:26.029Z,100205.69
2018-05-01T03:11:51.801Z,100210.34
2018-05-01T03:14:17.601Z,100218.36
2018-05-01T03:16:43.330Z,100224.14
2018-05-01T03:19:09.116Z,100223.72
2018-05-01T03:21:34.932Z,100217.52
2018-05-01T03:24:00.656Z,100216.47
2018-05-01T03:26:26.967Z,100217.34
2018-05-01T03:28:52.708Z,100222.63
2018-05-01T03:31:18.427Z,100220.25
2018-05-01T03:33:44.277Z,100227.17
2018-05-01T03:36:09.987Z,100220.55
2018-05-01T03:38:35.758Z,100225.94
2018-05-01T03:41:01.525Z,100231.17
2018-05-01T03:43:27.248Z,100238.60
2018-05-01T03:45:53.069Z,100238.62
2018-05-01T03:48:18.861Z,100229.66
2018-05-01T03:50:44.644Z,100242.00
2018-05-01T03:53:10.378Z,100241.03
2018-05-01T03:55:36.161Z,100234.55
2018-05-01T03:58:01.963Z,100237.94
2018-05-01T04:00:27.687Z,100236.09
2018-05-01T04:02:53.846Z,100248.33
2018-05-01T04:05:19.686Z,100251.45
2018-05-01T04:07:45.464Z,100249.70
2018-05-01T04:10:11.306Z,100265.33
2018-05-01T04:12:37.043Z,100267.70
2018-05-01T04:15:02.827Z,100282.47
2018-05-01T04:17:28.594Z,100287.52
2018-05-01T04:19:54.317Z,100291.45
2018-05-01T04:22:20.121Z,100280.56
2018-05-01T04:24:45.885Z,100290.91
2018-05-01T04:27:11.658Z,100292.36
2018-05-01T04:29:37.400Z,100292.03
2018-05-01T04:32:03.371Z,100293.91
2018-05-01T04:34:29.184Z,100300.09
2018-05-01T04:36:54.911Z,100302.89
2018-05-01T04:39:20.770Z,100300.86
2018-05-01T04:41:46.495Z,100295.58
2018-05-01T04:44:12.215Z,100301.64
2018-05-01T04:46:38.427Z,100296.30
2018-05-01T04:49:04.523Z,100305.63
2018-05-01T04:51:30.342Z,100307.98
2018-05-01T04:53:56.186Z,100313.45
2018-05-01T04:56:22.167Z,100311.76
2018-05-01T04:58:48.074Z,100310.45
2018-05-01T05:01:13.911Z,100312.89
2018-05-01T05:03:39.785Z,100309.91
2018-05-01T05:06:06.718Z,100309.57
2018-05-01T05:08:33.153Z,100307.16
2018-05-01T05:10:59.384Z,100315.03
2018-05-01T05:13:25.492Z,100316.06
2018-05-01T05:15:51.417Z,100311.13
2018-05-01T05:18:17.283Z,100312.42
2018-05-01T05:20:43.128Z,100321.49
2018-05-01T05:23:09.077Z,100323.68
2018-05-01T05:25:34.914Z,100323.62
2018-05-01T05:28:00.645Z,100337.43
2018-05-01T05:30:26.717Z,100340.84
2018-05-01T05:32:53.036Z,100328.73
2018-05-01T05:35:18.882Z,100328.09
2018-05-01T05:37:44.725Z,100339.84
2018-05-01T05:40:10.481Z,100329.68
2018-05-01T05:42:36.233Z,100327.67
2018-05-01T05:45:02.063Z,100328.67
2018-05-01T05:47:27.807Z,100326.52
2018-05-01T05:49:53.547Z,100318.90
2018-05-01T05:52:20.583Z,100331.78
2018-05-01T05:54:46.387Z,100325.77
2018-05-01T05:57:12.194Z,100326.60
2018-05-01T05:59:38.046Z,100327.41
2018-05-01T06:02:04.172Z,100333.80
2018-05-01T06:04:29.883Z,100328.42
2018-05-01T06:07:03.051Z,100347.55
2018-05-01T06:09:29.041Z,100343.55
2018-05-01T06:11:54.807Z,100350.97
2018-05-01T06:14:20.554Z,100355.09
2018-05-01T06:16:46.299Z,100359.89
2018-05-01T06:19:12.011Z,100362.98
2018-05-01T06:21:37.784Z,100369.05
2018-05-01T06:24:05.037Z,100367.70
2018-05-01T06:26:30.777Z,100377.53
2018-05-01T06:28:56.596Z,100371.98
2018-05-01T06:31:22.374Z,100362.37
2018-05-01T06:33:48.230Z,100364.98
2018-05-01T06:36:14.008Z,100364.62
2018-05-01T06:38:39.758Z,100363.80
2018-05-01T06:41:05.495Z,100361.23
2018-05-01T06:43:31.259Z,100366.93
2018-05-01T06:45:56.991Z,100358.12
2018-05-01T06:48:22.710Z,100374.83
2018-05-01T06:50:48.515Z,100379.89
2018-05-01T06:53:14.245Z,100386.41
2018-05-01T06:55:39.994Z,100378.08
2018-05-01T06:58:05.755Z,100382.37
2018-05-01T07:00:31.963Z,100385.89
2018-05-01T07:02:57.686Z,100397.06
2018-05-01T07:05:23.443Z,100399.92
2018-05-01T07:07:49.147Z,100402.87
2018-05-01T07:10:14.910Z,100402.47
2018-05-01T07:12:40.641Z,100404.19
2018-05-01T07:15:06.380Z,100410.76
2018-05-01T07:17:32.126Z,100420.80
2018-05-01T07:19:57.926Z,100418.90
2018-05-01T07:22:23.652Z,100422.31
2018-05-01T07:24:49.366Z,100427.89
2018-05-01T07:27:15.133Z,100429.84
2018-05-01T07:29:40.860Z,100417.49
2018-05-01T07:32:06.618Z,100412.12
2018-05-01T07:34:32.387Z,100414.34
2018-05-01T07:36:58.178Z,100423.78
2018-05-01T07:39:23.895Z,100420.41
2018-05-01T07:41:50.744Z,100419.34
2018-05-01T07:44:16.512Z,100419.87
2018-05-01T07:46:42.261Z,100423.45
2018-05-01T07:49:08.230Z,100419.34
2018-05-01T07:51:34.223Z,100414.56
2018-05-01T07:53:59.990Z,100424.70
2018-05-01T07:56:25.795Z,100417.26
2018-05-01T07:58:51.546Z,100408.05
2018-05-01T08:01:17.441Z,100420.09
2018-05-01T08:03:43.219Z,100432.11
2018-05-01T08:06:08.947Z,100432.65
2018-05-01T08:08:34.721Z,100440.25
2018-05-01T08:11:00.728Z,100442.22
2018-05-01T08:13:26.474Z,100445.61
2018-05-01T08:15:52.221Z,100452.56
2018-05-01T08:18:18.076Z,100448.59
2018-05-01T08:20:43.808Z,100449.00
2018-05-01T08:23:09.596Z,100453.41
2018-05-01T08:25:35.373Z,100455.23
2018-05-01T08:28:01.163Z,100456.33
2018-05-01T08:30:27.284Z,100463.02
2018-05-01T08:32:53.107Z,100468.30
2018-05-01T08:35:18.998Z,100446.95
2018-05-01T08:37:46.149Z,100450.98
2018-05-01T08:40:11.980Z,100454.52
2018-05-01T08:42:37.763Z,100461.67
2018-05-01T08:45:04.009Z,100467.59
2018-05-01T08:47:29.864Z,100473.77
2018-05-01T08:49:55.601Z,100474.68
2018-05-01T08:52:21.348Z,100476.44
2018-05-01T08:54:47.368Z,100482.81
2018-05-01T08:57:13.313Z,100475.39
2018-05-01T08:59:39.057Z,100483.11
2018-05-01T09:02:04.890Z,100474.69
2018-05-01T09:04:30.660Z,100466.79
2018-05-01T09:06:56.392Z,100476.47
2018-05-01T09:09:22.256Z,100483.11
2018-05-01T09:11:47.982Z,100493.98
2018-05-01T09:14:13.696Z,100491.92
2018-05-01T09:16:39.471Z,100505.04
2018-05-01T09:19:05.243Z,100496.58
2018-05-01T09:21:30.959Z,100509.45
2018-05-01T09:23:56.733Z,100516.65
2018-05-01T09:26:22.463Z,100514.55
2018-05-01T09:28:48.298Z,100523.76
2018-05-01T09:31:14.105Z,100514.75
2018-05-01T09:33:39.829Z,100521.94
2018-05-01T09:36:05.548Z,100515.20
2018-05-01T09:38:31.632Z,100516.79
2018-05-01T09:40:57.355Z,100521.34
2018-05-01T09:43:23.130Z,100510.44
2018-05-01T09:45:48.883Z,100517.38
2018-05-01T09:48:14.600Z,100520.12
2018-05-01T09:50:40.322Z,100521.30
2018-05-01T09:53:06.321Z,100513.99
2018-05-01T09:55:32.183Z,100508.11
2018-05-01T09:57:58.079Z,100507.02
2018-05-01T10:00:24.139Z,100513.18
2018-05-01T10:02:50.388Z,100501.69
2018-05-01T10:05:16.283Z,100505.55
2018-05-01T10:07:42.304Z,100497.59
2018-05-01T10:10:08.180Z,100489.06
2018-05-01T10:12:34.035Z,100494.31
2018-05-01T10:14:59.942Z,100499.73
2018-05-01T10:17:25.835Z,100494.50
2018-05-01T10:19:51.719Z,100490.92
2018-05-01T10:22:17.706Z,100491.91
2018-05-01T10:24:43.625Z,100495.19
2018-05-01T10:27:09.475Z,100503.14
2018-05-01T10:29:35.627Z,100503.16
2018-05-01T10:32:01.675Z,100495.92
2018-05-01T10:34:27.563Z,100506.53
2018-05-01T10:36:53.464Z,100504.87
2018-05-01T10:39:19.337Z,100503.45
2018-05-01T10:41:45.215Z,100509.62
2018-05-01T10:44:11.127Z,100508.08
2018-05-01T10:46:37.114Z,100516.44
2018-05-01T10:49:03.013Z,100496.69
2018-05-01T10:51:28.919Z,100501.34
2018-05-01T10:53:54.811Z,100505.46
2018-05-01T10:56:20.735Z,100500.61
2018-05-01T10:58:46.623Z,100503.92
2018-05-01T11:01:12.493Z,100503.14
2018-05-01T11:03:38.352Z,100512.32
2018-05-01T11:06:04.271Z,100512.45
2018-05-01T11:08:30.237Z,100518.06
2018-05-01T11:10:56.036Z,100511.07
2018-05-01T11:13:22.334Z,100532.48
2018-05-01T11:15:48.219Z,100522.42
2018-05-01T11:18:14.075Z,100530.27
2018-05-01T11:20:40.063Z,100511.41
2018-05-01T11:23:05.945Z,100517.95
2018-05-01T11:25:31.802Z,100532.76
2018-05-01T11:27:57.723Z,100535.03
2018-05-01T11:30:23.628Z,100528.61
2018-05-01T11:32:49.537Z,100550.23
2018-05-01T11:35:15.505Z,100543.77
2018-05-01T11:37:41.391Z,100548.81
2018-05-01T11:40:07.256Z,100553.72
2018-05-01T11:42:33.161Z,100543.15
2018-05-01T11:44:59.107Z,100560.94
2018-05-01T11:47:24.918Z,100552.48
2018-05-01T11:49:50.904Z,100558.06
2018-05-01T11:52:16.769Z,100568.70
2018-05-01T11:54:42.633Z,100569.45
2018-05-01T11:57:08.578Z,100574.70
2018-05-01T11:59:34.488Z,100582.64
2018-05-01T12:02:00.323Z,100579.00
2018-05-01T12:04:26.281Z,100591.48
2018-05-01T12:06:52.179Z,100605.52
2018-05-01T12:09:18.047Z,100599.55
2018-05-01T12:11:44.379Z,100609.66
2018-05-01T12:14:10.234Z,100598.81
2018-05-01T12:16:37.132Z,100605.65
2018-05-01T12:19:03.056Z,100620.30
2018-05-01T12:21:28.968Z,100605.59
2018-05-01T12:23:54.942Z,100625.14
2018-05-01T12:26:20.852Z,100625.12
2018-05-01T12:28:46.722Z,100621.03
2018-05-01T12:31:12.603Z,100627.09
2018-05-01T12:33:38.886Z,100613.69
2018-05-01T12:36:04.993Z,100615.91
2018-05-01T12:38:31.095Z,100619.17
2018-05-01T12:40:57.231Z,100630.05
2018-05-01T12:43:23.453Z,100614.95
2018-05-01T12:45:49.558Z,100623.30
2018-05-01T12:48:15.509Z,100625.31
2018-05-01T12:50:41.331Z,100623.96
2018-05-01T12:53:07.184Z,100623.05
2018-05-01T12:55:34.074Z,100624.48
2018-05-01T12:58:00.015Z,100621.91
2018-05-01T13:00:25.879Z,100620.91
2018-05-01T13:02:51.857Z,100616.10
2018-05-01T13:05:17.743Z,100602.10
2018-05-01T13:07:43.606Z,100623.70
2018-05-01T13:10:09.557Z,100618.58
2018-05-01T13:12:35.476Z,100616.78
2018-05-01T13:15:01.291Z,100607.38
2018-05-01T13:17:28.085Z,100624.78
2018-05-01T13:19:54.029Z,100623.30
2018-05-01T13:22:20.005Z,100616.47
2018-05-01T13:24:45.916Z,100625.42
2018-05-01T13:27:11.787Z,100629.58
2018-05-01T13:29:37.639Z,100637.91
2018-05-01T13:32:03.555Z,100629.09
2018-05-01T13:34:29.417Z,100624.49
2018-05-01T13:36:55.276Z,100642.92
2018-05-01T13:39:21.272Z,100651.00
2018-05-01T13:41:47.125Z,100649.08
2018-05-01T13:44:12.995Z,100645.55
2018-05-01T13:46:38.890Z,100636.45
2018-05-01T13:49:04.751Z,100646.06
2018-05-01T13:51:30.637Z,100662.51
2018-05-01T13:53:56.569Z,100661.48
2018-05-01T13:56:22.436Z,100659.34
2018-05-01T13:58:48.351Z,100671.79
2018-05-01T14:01:14.254Z,100673.19
2018-05-01T14:03:40.124Z,100668.19
2018-05-01T14:06:05.988Z,100681.61
2018-05-01T14:08:31.936Z,100674.38
2018-05-01T14:10:57.939Z,100681.31
2018-05-01T14:13:23.817Z,100670.22
2018-05-01T14:15:49.723Z,100654.96
2018-05-01T14:18:15.576Z,100668.02
2018-05-01T14:20:41.457Z,100660.48
2018-05-01T14:23:07.434Z,100663.20
2018-05-01T14:25:33.318Z,100655.65
2018-05-01T14:27:59.200Z,100657.44
2018-05-01T14:30:25.095Z,100665.62
2018-05-01T14:32:50.972Z,100663.71
2018-05-01T14:35:16.823Z,100668.70
2018-05-01T14:37:43.122Z,100670.84
2018-05-01T14:40:08.971Z,100672.80
2018-05-01T14:42:34.824Z,100676.36
2018-05-01T14:45:00.727Z,100685.52
2018-05-01T14:47:26.615Z,100685.98
2018-05-01T14:49:52.482Z,100684.16
2018-05-01T14:52:18.396Z,100689.09
2018-05-01T14:54:44.279Z,100692.36
2018-05-01T14:57:10.144Z,100691.80
2018-05-01T14:59:36.074Z,100697.98
2018-05-01T15:02:01.958Z,100693.88
2018-05-01T15:04:27.821Z,100687.44
2018-05-01T15:06:53.723Z,100705.37
2018-05-01T15:09:19.571Z,100698.13
2018-05-01T15:11:45.531Z,100706.48
2018-05-01T15:14:11.457Z,100713.50
2018-05-01T15:16:37.314Z,100706.46
2018-05-01T15:19:03.197Z,100716.76
2018-05-01T15:21:29.118Z,100709.19
2018-05-01T15:23:55.107Z,100710.00
2018-05-01T15:26:21.010Z,100711.72
2018-05-01T15:28:46.903Z,100712.83
2018-05-01T15:31:12.829Z,100716.89
2018-05-01T15:33:38.705Z,100716.54
2018-05-01T15:36:04.704Z,100710.45
2018-05-01T15:38:30.570Z,100718.38
2018-05-01T15:40:56.434Z,100721.18
2018-05-01T15:43:22.690Z,100717.36
2018-05-01T15:45:48.610Z,100720.28
2018-05-01T15:48:14.547Z,100722.91
2018-05-01T15:50:40.458Z,100735.94
2018-05-01T15:53:06.358Z,100733.50
2018-05-01T15:55:32.239Z,100735.42
2018-05-01T15:57:58.196Z,100733.11
2018-05-01T16:00:24.652Z,100731.47
2018-05-01T16:02:50.526Z,100740.20
2018-05-01T16:05:16.453Z,100747.86
2018-05-01T16:07:42.320Z,100737.06
2018-05-01T16:10:08.239Z,100731.92
2018-05-01T16:12:34.252Z,100729.59
2018-05-01T16:15:00.123Z,100718.91
2018-05-01T16:17:25.999Z,100720.80
2018-05-01T16:19:51.916Z,100729.47
2018-05-01T16:22:17.847Z,100715.75
2018-05-01T16:24:43.756Z,100725.37
2018-05-01T16:27:09.663Z,100723.55
2018-05-01T16:29:35.519Z,100718.22
2018-05-01T16:32:01.364Z,100715.98
2018-05-01T16:34:27.294Z,100717.94
2018-05-01T16:36:53.174Z,100712.63
2018-05-01T16:39:19.083Z,100724.38
2018-05-01T16:41:45.028Z,100721.48
2018-05-01T16:44:10.883Z,100720.09
2018-05-01T16:46:36.734Z,100729.34
2018-05-01T16:49:02.671Z,100730.47
2018-05-01T16:51:28.531Z,100738.35
2018-05-01T16:53:54.391Z,100744.12
2018-05-01T16:56:20.299Z,100741.05
2018-05-01T16:58:46.179Z,100742.49
2018-05-01T17:01:12.035Z,100745.69
2018-05-01T17:03:37.966Z,100739.55
2018-05-01T17:06:03.836Z,100734.03
2018-05-01T17:08:29.706Z,100735.07
2018-05-01T17:10:55.677Z,100740.48
2018-05-01T17:13:21.564Z,100748.53
2018-05-01T17:15:47.422Z,100746.40
2018-05-01T17:18:13.663Z,100745.17
2018-05-01T17:20:39.506Z,100742.61
2018-05-01T17:23:05.379Z,100747.36
2018-05-01T17:25:31.286Z,100746.06
2018-05-01T17:27:57.143Z,100751.30
2018-05-01T17:30:23.010Z,100764.80
2018-05-01T17:32:48.929Z,100777.03
2018-05-01T17:35:14.787Z,100771.02
2018-05-01T17:37:40.644Z,100780.20
2018-05-01T17:40:06.632Z,100783.30
2018-05-01T17:42:32.486Z,100786.63
2018-05-01T17:44:58.387Z,100788.11
2018-05-01T17:47:24.274Z,100795.69
2018-05-01T17:49:50.141Z,100788.32
2018-05-01T17:52:16.095Z,100795.48
2018-05-01T17:54:42.013Z,100801.50
2018-05-01T17:57:07.872Z,100810.52
2018-05-01T17:59:33.769Z,100804.13
2018-05-01T18:01:59.655Z,100813.80
2018-05-01T18:04:25.559Z,100813.86
2018-05-01T18:06:51.478Z,100810.24
2018-05-01T18:09:17.404Z,100820.23
2018-05-01T18:11:43.258Z,100817.55
2018-05-01T18:14:09.118Z,100818.90
2018-05-01T18:16:35.031Z,100825.85
2018-05-01T18:19:00.927Z,100818.06
2018-05-01T18:21:26.780Z,100822.91
2018-05-01T18:23:52.678Z,100832.55
2018-05-01T18:26:18.526Z,100831.88
2018-05-01T18:28:44.489Z,100837.09
2018-05-01T18:31:10.399Z,100852.68
2018-05-01T18:33:36.284Z,100857.27
2018-05-01T18:36:02.177Z,100855.26
2018-05-01T18:38:28.103Z,100857.52
2018-05-01T18:40:53.963Z,100865.44
2018-05-01T18:43:19.961Z,100867.67
2018-05-01T18:45:45.893Z,100866.33
2018-05-01T18:48:11.803Z,100866.77
2018-05-01T18:50:40.392Z,100871.06
2018-05-01T18:53:03.617Z,100875.65
2018-05-01T18:55:29.501Z,100871.92
2018-05-01T18:57:55.419Z,100875.27
2018-05-01T19:00:21.303Z,100879.93
2018-05-01T19:02:47.159Z,100885.43
2018-05-01T19:05:13.019Z,100886.08
2018-05-01T19:07:39.471Z,100889.75
2018-05-01T19:10:05.324Z,100880.80
2018-05-01T19:12:31.198Z,100900.23
2018-05-01T19:14:57.430Z,100904.84
2018-05-01T19:17:23.463Z,100908.11
2018-05-01T19:19:49.551Z,100919.25
2018-05-01T19:22:15.478Z,100923.38
2018-05-01T19:24:41.445Z,100921.30
2018-05-01T19:27:07.769Z,100925.84
2018-05-01T19:29:33.729Z,100920.26
2018-05-01T19:31:59.576Z,100920.38
2018-05-01T19:34:25.763Z,100922.71
2018-05-01T19:36:52.129Z,100928.50
2018-05-01T19:39:18.032Z,100932.16
2018-05-01T19:41:44.033Z,100943.64
2018-05-01T19:44:10.106Z,100944.61
2018-05-01T19:46:35.962Z,100946.94
2018-05-01T19:49:01.819Z,100952.62
2018-05-01T19:51:27.801Z,100946.19
2018-05-01T19:53:53.754Z,100937.22
2018-05-01T19:56:20.085Z,100946.88
2018-05-01T19:58:46.027Z,100944.25
2018-05-01T20:01:12.350Z,100945.75
2018-05-01T20:03:38.306Z,100948.52
2018-05-01T20:06:04.210Z,100950.88
2018-05-01T20:08:30.063Z,100952.20
2018-05-01T20:10:56.403Z,100960.61
2018-05-01T20:13:22.325Z,100963.73
2018-05-01T20:15:48.672Z,100966.74
2018-05-01T20:18:14.970Z,100973.73
2018-05-01T20:20:41.512Z,100972.50
2018-05-01T20:23:07.374Z,100978.52
2018-05-01T20:25:33.513Z,100973.73
2018-05-01T20:28:00.064Z,100974.60
2018-05-01T20:30:25.973Z,100974.75
2018-05-01T20:32:51.963Z,100980.16
2018-05-01T20:35:17.872Z,100982.86
2018-05-01T20:37:43.736Z,100978.11
2018-05-01T20:40:09.668Z,100968.95
2018-05-01T20:42:35.567Z,100972.07
2018-05-01T20:45:01.518Z,100969.55
2018-05-01T20:47:27.375Z,100966.09
2018-05-01T20:49:53.728Z,100977.52
2018-05-01T20:52:19.588Z,100978.40
2018-05-01T20:54:45.435Z,100976.69
2018-05-01T20:57:11.340Z,100988.12
2018-05-01T20:59:37.220Z,100987.73
2018-05-01T21:02:03.073Z,100996.07
2018-05-01T21:04:29.048Z,100991.80
2018-05-01T21:06:54.890Z,100996.19
2018-05-01T21:09:20.744Z,100998.36
2018-05-01T21:11:47.500Z,101000.59
2018-05-01T21:14:13.347Z,101005.47
2018-05-01T21:16:39.197Z,101015.10
2018-05-01T21:19:05.096Z,101007.30
2018-05-01T21:21:30.945Z,101011.67
2018-05-01T21:23:56.804Z,101025.25
2018-05-01T21:26:22.700Z,101025.75
2018-05-01T21:28:48.830Z,101027.11
2018-05-01T21:31:14.669Z,101025.86
2018-05-01T21:33:40.559Z,101027.60
2018-05-01T21:36:06.421Z,101020.19
2018-05-01T21:38:32.276Z,101031.97
2018-05-01T21:40:58.234Z,101039.87
2018-05-01T21:43:24.148Z,101044.23
2018-05-01T21:45:50.016Z,101049.94
2018-05-01T21:48:15.910Z,101048.66
2018-05-01T21:50:41.772Z,101055.65
2018-05-01T21:53:07.709Z,101059.57
2018-05-01T21:55:33.550Z,101063.89
2018-05-01T21:57:59.407Z,101065.67
2018-05-01T22:00:25.255Z,101075.73
2018-05-01T22:02:51.224Z,101079.66
2018-05-01T22:05:17.077Z,101083.58
2018-05-01T22:07:42.914Z,101076.64
2018-05-01T22:10:08.888Z,101077.91
2018-05-01T22:12:34.674Z,101084.45
2018-05-01T22:15:00.555Z,101094.91
2018-05-01T22:17:26.517Z,101104.53
2018-05-01T22:19:52.385Z,101101.48
2018-05-01T22:22:18.239Z,101116.75
2018-05-01T22:24:44.131Z,101106.74
2018-05-01T22:27:09.972Z,101107.64
2018-05-01T22:29:35.835Z,101117.22
2018-05-01T22:32:01.780Z,101118.55
2018-05-01T22:34:27.649Z,101118.13
2018-05-01T22:36:53.501Z,101122.02
2018-05-01T22:39:19.394Z,101118.55
2018-05-01T22:41:45.248Z,101118.55
2018-05-01T22:44:11.174Z,101118.11
2018-05-01T22:46:37.062Z,101118.98
2018-05-01T22:49:02.925Z,101115.92
2018-05-01T22:51:28.787Z,101116.36
2018-05-01T22:53:54.682Z,101123.77
2018-05-01T22:56:20.545Z,101124.20
2018-05-01T22:58:46.395Z,101123.34
2018-05-01T23:01:12.314Z,101125.07
2018-05-01T23:03:38.167Z,101127.67
2018-05-01T23:06:04.020Z,101128.55
2018-05-01T23:08:29.923Z,101132.89
2018-05-01T23:10:55.776Z,101133.75
2018-05-01T23:13:21.615Z,101135.92
2018-05-01T23:15:47.505Z,101129.81
2018-05-01T23:18:13.355Z,101130.71
2018-05-01T23:20:39.217Z,101134.64
2018-05-01T23:23:05.132Z,101138.14
2018-05-01T23:25:30.980Z,101141.17
2018-05-01T23:27:56.819Z,101142.91
2018-05-01T23:30:22.707Z,101143.31
2018-05-01T23:32:48.559Z,101145.48
2018-05-01T23:35:14.399Z,101146.80
2018-05-01T23:37:40.286Z,101164.62
2018-05-01T23:40:06.150Z,101164.59
2018-05-01T23:42:31.995Z,101163.70
2018-05-01T23:44:57.955Z,101159.77
2018-05-01T23:47:23.823Z,101159.33
2018-05-01T23:49:49.699Z,101158.02
2018-05-01T23:52:15.614Z,101162.79
2018-05-01T23:54:41.489Z,101161.05
2018-05-01T23:57:07.335Z,101166.70
2018-05-01T23:59:33.222Z,101164.48
